Sardis, MS (38666)

11:55 PM CDT on July 04, 2015 (GMT -0500)
Bett | | Change Station
CLOSE
Current Station
Personal Weather Station
Location: Coldwater, MS
Elevation: 367 ft
Nearby Weather Stations

Elev 367 ft 34.69 °N, 89.76 °W | Updated 11 seconds ago

Clear
Clear
70.5 °F
Feels Like 70.5 °F
N
0.0
Wind Variable Wind from ENE
Gusts 0.0 mph

Today
High -- | Low -- °F
--% Chance of Precip.
Yesterday
High -- | Low -- °F
Precip. -- in
5:52 AM 8:15 PM
Waning Gibbous, 88% visible
Pressure 30.04 in
Visibility 10.0 miles
Clouds Clear
Dew Point 70 °F
Humidity 98%
Rainfall 0.56 in
Snow Depth Not available.
UV 0 out of 12
Pollen 1.50 out of 12
Air Quality Not available.
Flu Activity Not available.
METAR KUTA 050455Z AUTO 19003KT 10SM CLR 22/20 A3004 RMK AO2

More Conditions Fewer Conditions

Pressure 30.04 in
Visibility 10.0 miles
Clouds Clear
Dew Point 70 °F
Humidity 98%
Rainfall 0.56 in
Snow Depth Not available.
UV 0 out of 12
Pollen 1.50 out of 12
Air Quality Not available.
Flu Activity Not available.
METAR KUTA 050455Z AUTO 19003KT 10SM CLR 22/20 A3004 RMK AO2

More Conditions Fewer Conditions

10-Day Weather Forecast

×

Almanac

Astronomy

Jul. 04, 2015 Rise Set
Actual Time
Civil Twilight
Nautical Twilight
Astronomical Twilight
Moon
Length of Visible Light
Length of Day
Tomorrow will be .
, % of the Moon is Illuminated

Today's Extremes

State Highs State Lows

Community

WunderPhotos

Upload Photos

1,835,200 photos uploaded!

WunderBlogs® & News

Nearby

Air Quality

  Air Quality AQ Index Pollutant
Not available.

Snow Depth

Station Depth Elevation

Earthquake Activity

City Distance Mag. Time & Date
Minimum magnitude displayed is 2.5.

Coastal Water Temperatures

Place Temperature

Stations

Nearby Weather Stations

Station Location Temp. Windchill Dew Point Humidity Wind Precip. Elev Updated Type